sensor_id;sensor_type;location;lat;lon;timestamp;P1;durP1;ratioP1;P2;durP2;ratioP2
33730;SDS011;22931;48.636;9.000;2023-09-07T00:14:09;1.27;;;1.10;;
33730;SDS011;22931;48.636;9.000;2023-09-07T00:31:55;2.78;;;1.73;;
33730;SDS011;22931;48.636;9.000;2023-09-07T00:37:05;1.75;;;1.30;;
33730;SDS011;22931;48.636;9.000;2023-09-07T00:42:13;1.70;;;1.60;;
33730;SDS011;22931;48.636;9.000;2023-09-07T00:47:20;1.48;;;1.38;;
33730;SDS011;22931;48.636;9.000;2023-09-07T00:52:31;2.45;;;1.60;;
33730;SDS011;22931;48.636;9.000;2023-09-07T00:57:40;1.38;;;1.27;;
33730;SDS011;22931;48.636;9.000;2023-09-07T01:02:47;2.05;;;1.23;;
33730;SDS011;22931;48.636;9.000;2023-09-07T01:07:58;1.33;;;1.20;;
33730;SDS011;22931;48.636;9.000;2023-09-07T01:13:11;1.30;;;1.17;;
33730;SDS011;22931;48.636;9.000;2023-09-07T01:18:18;1.33;;;1.23;;
33730;SDS011;22931;48.636;9.000;2023-09-07T01:23:44;1.42;;;1.00;;
33730;SDS011;22931;48.636;9.000;2023-09-07T01:28:53;1.42;;;1.27;;
33730;SDS011;22931;48.636;9.000;2023-09-07T01:34:01;1.20;;;1.10;;
33730;SDS011;22931;48.636;9.000;2023-09-07T01:39:12;1.45;;;1.33;;
33730;SDS011;22931;48.636;9.000;2023-09-07T01:44:19;2.25;;;1.40;;
33730;SDS011;22931;48.636;9.000;2023-09-07T01:49:27;1.38;;;1.08;;
33730;SDS011;22931;48.636;9.000;2023-09-07T01:54:37;2.15;;;1.33;;
33730;SDS011;22931;48.636;9.000;2023-09-07T01:59:45;1.67;;;1.57;;
33730;SDS011;22931;48.636;9.000;2023-09-07T02:04:53;2.25;;;1.52;;
33730;SDS011;22931;48.636;9.000;2023-09-07T02:10:03;1.85;;;1.45;;
33730;SDS011;22931;48.636;9.000;2023-09-07T02:15:12;3.25;;;1.63;;
33730;SDS011;22931;48.636;9.000;2023-09-07T02:20:20;1.48;;;1.38;;
33730;SDS011;22931;48.636;9.000;2023-09-07T02:25:30;1.58;;;1.45;;
33730;SDS011;22931;48.636;9.000;2023-09-07T02:30:39;1.50;;;1.40;;
33730;SDS011;22931;48.636;9.000;2023-09-07T02:35:47;1.58;;;1.27;;
33730;SDS011;22931;48.636;9.000;2023-09-07T02:40:58;1.67;;;1.50;;
33730;SDS011;22931;48.636;9.000;2023-09-07T02:46:06;2.35;;;1.63;;
33730;SDS011;22931;48.636;9.000;2023-09-07T02:51:14;1.85;;;1.33;;
33730;SDS011;22931;48.636;9.000;2023-09-07T02:56:24;1.35;;;1.20;;
33730;SDS011;22931;48.636;9.000;2023-09-07T03:01:32;2.20;;;1.60;;
33730;SDS011;22931;48.636;9.000;2023-09-07T03:06:40;1.60;;;1.40;;
33730;SDS011;22931;48.636;9.000;2023-09-07T03:11:50;1.75;;;1.35;;
33730;SDS011;22931;48.636;9.000;2023-09-07T03:16:57;2.00;;;1.80;;
33730;SDS011;22931;48.636;9.000;2023-09-07T03:22:05;1.85;;;1.42;;
33730;SDS011;22931;48.636;9.000;2023-09-07T03:27:16;1.83;;;1.38;;
33730;SDS011;22931;48.636;9.000;2023-09-07T03:32:25;3.95;;;1.70;;
33730;SDS011;22931;48.636;9.000;2023-09-07T03:37:36;1.50;;;1.33;;
33730;SDS011;22931;48.636;9.000;2023-09-07T03:42:47;1.60;;;1.50;;
33730;SDS011;22931;48.636;9.000;2023-09-07T03:47:54;1.77;;;1.67;;
33730;SDS011;22931;48.636;9.000;2023-09-07T03:53:02;1.75;;;1.50;;
33730;SDS011;22931;48.636;9.000;2023-09-07T03:58:13;3.17;;;1.52;;
33730;SDS011;22931;48.636;9.000;2023-09-07T04:03:21;2.03;;;1.47;;
33730;SDS011;22931;48.636;9.000;2023-09-07T04:08:30;2.17;;;1.70;;
33730;SDS011;22931;48.636;9.000;2023-09-07T04:13:40;1.45;;;1.35;;
33730;SDS011;22931;48.636;9.000;2023-09-07T04:18:48;1.40;;;1.30;;
33730;SDS011;22931;48.636;9.000;2023-09-07T04:23:56;2.75;;;1.50;;
33730;SDS011;22931;48.636;9.000;2023-09-07T04:29:06;2.45;;;1.40;;
33730;SDS011;22931;48.636;9.000;2023-09-07T04:34:16;1.80;;;1.38;;
33730;SDS011;22931;48.636;9.000;2023-09-07T04:39:24;1.77;;;1.67;;
33730;SDS011;22931;48.636;9.000;2023-09-07T04:44:34;2.42;;;1.90;;
33730;SDS011;22931;48.636;9.000;2023-09-07T04:49:42;1.57;;;1.47;;
33730;SDS011;22931;48.636;9.000;2023-09-07T04:54:55;1.75;;;1.35;;
33730;SDS011;22931;48.636;9.000;2023-09-07T05:00:06;1.90;;;1.30;;
33730;SDS011;22931;48.636;9.000;2023-09-07T05:05:15;1.95;;;1.52;;
33730;SDS011;22931;48.636;9.000;2023-09-07T05:10:23;1.30;;;1.20;;
33730;SDS011;22931;48.636;9.000;2023-09-07T05:15:33;1.25;;;1.15;;
33730;SDS011;22931;48.636;9.000;2023-09-07T05:20:41;2.10;;;1.67;;
33730;SDS011;22931;48.636;9.000;2023-09-07T05:25:49;2.10;;;1.67;;
33730;SDS011;22931;48.636;9.000;2023-09-07T05:31:01;2.35;;;1.75;;
33730;SDS011;22931;48.636;9.000;2023-09-07T05:36:09;1.83;;;1.50;;
33730;SDS011;22931;48.636;9.000;2023-09-07T05:41:17;2.35;;;1.52;;
33730;SDS011;22931;48.636;9.000;2023-09-07T05:46:27;2.45;;;1.88;;
33730;SDS011;22931;48.636;9.000;2023-09-07T05:51:35;2.05;;;1.60;;
33730;SDS011;22931;48.636;9.000;2023-09-07T05:56:43;2.78;;;1.60;;
33730;SDS011;22931;48.636;9.000;2023-09-07T06:01:53;1.63;;;1.52;;
33730;SDS011;22931;48.636;9.000;2023-09-07T06:07:01;1.60;;;1.50;;
33730;SDS011;22931;48.636;9.000;2023-09-07T06:12:09;2.80;;;1.50;;
33730;SDS011;22931;48.636;9.000;2023-09-07T06:17:19;1.83;;;1.70;;
33730;SDS011;22931;48.636;9.000;2023-09-07T06:22:27;4.30;;;2.27;;
33730;SDS011;22931;48.636;9.000;2023-09-07T06:27:35;5.18;;;2.33;;
33730;SDS011;22931;48.636;9.000;2023-09-07T06:32:45;2.85;;;2.55;;
33730;SDS011;22931;48.636;9.000;2023-09-07T06:37:53;4.90;;;2.67;;
33730;SDS011;22931;48.636;9.000;2023-09-07T06:43:03;3.13;;;2.40;;
33730;SDS011;22931;48.636;9.000;2023-09-07T06:48:14;4.23;;;2.40;;
33730;SDS011;22931;48.636;9.000;2023-09-07T06:53:22;5.13;;;2.10;;
33730;SDS011;22931;48.636;9.000;2023-09-07T06:58:48;4.75;;;2.28;;
33730;SDS011;22931;48.636;9.000;2023-09-07T07:03:58;2.83;;;2.58;;
33730;SDS011;22931;48.636;9.000;2023-09-07T07:09:07;3.13;;;2.78;;
33730;SDS011;22931;48.636;9.000;2023-09-07T07:14:15;2.83;;;2.40;;
33730;SDS011;22931;48.636;9.000;2023-09-07T07:19:25;3.35;;;2.80;;
33730;SDS011;22931;48.636;9.000;2023-09-07T07:24:33;3.30;;;2.87;;
33730;SDS011;22931;48.636;9.000;2023-09-07T07:29:41;3.83;;;2.30;;
33730;SDS011;22931;48.636;9.000;2023-09-07T07:34:51;5.53;;;2.70;;
33730;SDS011;22931;48.636;9.000;2023-09-07T07:39:59;3.63;;;2.50;;
33730;SDS011;22931;48.636;9.000;2023-09-07T07:45:08;5.05;;;2.50;;
33730;SDS011;22931;48.636;9.000;2023-09-07T07:50:22;2.10;;;1.88;;
33730;SDS011;22931;48.636;9.000;2023-09-07T07:55:29;2.90;;;2.63;;
33730;SDS011;22931;48.636;9.000;2023-09-07T08:00:38;3.45;;;2.55;;
33730;SDS011;22931;48.636;9.000;2023-09-07T08:05:50;2.30;;;2.10;;
33730;SDS011;22931;48.636;9.000;2023-09-07T08:10:58;2.50;;;2.30;;
33730;SDS011;22931;48.636;9.000;2023-09-07T08:16:10;3.92;;;2.55;;
33730;SDS011;22931;48.636;9.000;2023-09-07T08:21:21;3.08;;;2.53;;
33730;SDS011;22931;48.636;9.000;2023-09-07T08:26:30;2.60;;;2.40;;
33730;SDS011;22931;48.636;9.000;2023-09-07T08:31:40;3.65;;;2.90;;
33730;SDS011;22931;48.636;9.000;2023-09-07T08:36:52;2.85;;;2.50;;
33730;SDS011;22931;48.636;9.000;2023-09-07T08:42:04;5.28;;;2.83;;
33730;SDS011;22931;48.636;9.000;2023-09-07T08:47:12;4.03;;;2.40;;
33730;SDS011;22931;48.636;9.000;2023-09-07T08:52:24;2.85;;;2.38;;
33730;SDS011;22931;48.636;9.000;2023-09-07T08:57:32;2.43;;;2.23;;
33730;SDS011;22931;48.636;9.000;2023-09-07T09:02:40;3.13;;;2.78;;
33730;SDS011;22931;48.636;9.000;2023-09-07T09:08:00;3.88;;;2.70;;
33730;SDS011;22931;48.636;9.000;2023-09-07T09:13:08;2.80;;;2.53;;
33730;SDS011;22931;48.636;9.000;2023-09-07T09:18:15;5.95;;;3.08;;
33730;SDS011;22931;48.636;9.000;2023-09-07T09:23:29;3.75;;;2.88;;
33730;SDS011;22931;48.636;9.000;2023-09-07T09:28:37;4.00;;;3.30;;
33730;SDS011;22931;48.636;9.000;2023-09-07T09:33:47;2.85;;;2.60;;
33730;SDS011;22931;48.636;9.000;2023-09-07T09:44:07;2.77;;;2.50;;
33730;SDS011;22931;48.636;9.000;2023-09-07T09:49:16;2.90;;;2.60;;
33730;SDS011;22931;48.636;9.000;2023-09-07T09:54:28;4.63;;;3.15;;
33730;SDS011;22931;48.636;9.000;2023-09-07T09:59:39;2.95;;;2.65;;
33730;SDS011;22931;48.636;9.000;2023-09-07T10:04:48;2.95;;;2.65;;
33730;SDS011;22931;48.636;9.000;2023-09-07T10:09:59;4.57;;;2.65;;
33730;SDS011;22931;48.636;9.000;2023-09-07T10:15:19;2.83;;;2.63;;
33730;SDS011;22931;48.636;9.000;2023-09-07T10:20:34;2.75;;;2.53;;
33730;SDS011;22931;48.636;9.000;2023-09-07T10:25:56;3.60;;;2.85;;
33730;SDS011;22931;48.636;9.000;2023-09-07T10:31:04;3.00;;;2.53;;
33730;SDS011;22931;48.636;9.000;2023-09-07T10:36:20;2.90;;;2.65;;
33730;SDS011;22931;48.636;9.000;2023-09-07T11:11:31;3.08;;;2.83;;
